sensor_id;sensor_type;location;lat;lon;timestamp;P1;durP1;ratioP1;P2;durP2;ratioP2
15708;SDS011;7954;51.914;8.420;2023-03-01T00:01:46;6.53;;;5.23;;
15708;SDS011;7954;51.914;8.420;2023-03-01T00:04:15;6.30;;;4.90;;
15708;SDS011;7954;51.914;8.420;2023-03-01T00:06:43;6.70;;;5.40;;
15708;SDS011;7954;51.914;8.420;2023-03-01T00:09:12;6.40;;;5.33;;
15708;SDS011;7954;51.914;8.420;2023-03-01T00:11:42;6.67;;;5.40;;
15708;SDS011;7954;51.914;8.420;2023-03-01T00:14:10;5.97;;;4.80;;
15708;SDS011;7954;51.914;8.420;2023-03-01T00:16:39;5.53;;;4.80;;
15708;SDS011;7954;51.914;8.420;2023-03-01T00:19:08;6.30;;;5.07;;
15708;SDS011;7954;51.914;8.420;2023-03-01T00:21:39;7.17;;;5.27;;
15708;SDS011;7954;51.914;8.420;2023-03-01T00:24:07;6.93;;;5.13;;
15708;SDS011;7954;51.914;8.420;2023-03-01T00:26:37;5.87;;;5.03;;
15708;SDS011;7954;51.914;8.420;2023-03-01T00:29:06;7.13;;;5.17;;
15708;SDS011;7954;51.914;8.420;2023-03-01T00:31:35;6.03;;;5.20;;
15708;SDS011;7954;51.914;8.420;2023-03-01T00:34:03;5.23;;;4.60;;
15708;SDS011;7954;51.914;8.420;2023-03-01T00:36:33;7.27;;;5.10;;
15708;SDS011;7954;51.914;8.420;2023-03-01T00:39:03;5.77;;;5.10;;
15708;SDS011;7954;51.914;8.420;2023-03-01T00:41:32;5.77;;;4.93;;
15708;SDS011;7954;51.914;8.420;2023-03-01T00:44:01;5.83;;;5.13;;
15708;SDS011;7954;51.914;8.420;2023-03-01T00:46:31;5.73;;;4.77;;
15708;SDS011;7954;51.914;8.420;2023-03-01T00:49:00;6.07;;;4.70;;
15708;SDS011;7954;51.914;8.420;2023-03-01T00:51:31;5.00;;;4.43;;
15708;SDS011;7954;51.914;8.420;2023-03-01T00:54:00;6.00;;;4.50;;
15708;SDS011;7954;51.914;8.420;2023-03-01T00:56:30;4.67;;;4.23;;
15708;SDS011;7954;51.914;8.420;2023-03-01T00:58:59;4.73;;;4.23;;
15708;SDS011;7954;51.914;8.420;2023-03-01T01:01:28;5.03;;;4.53;;
15708;SDS011;7954;51.914;8.420;2023-03-01T01:03:59;5.30;;;4.80;;
15708;SDS011;7954;51.914;8.420;2023-03-01T01:06:28;4.60;;;4.20;;
15708;SDS011;7954;51.914;8.420;2023-03-01T01:08:59;5.53;;;4.43;;
15708;SDS011;7954;51.914;8.420;2023-03-01T01:11:28;4.83;;;4.33;;
15708;SDS011;7954;51.914;8.420;2023-03-01T01:13:56;4.67;;;4.17;;
15708;SDS011;7954;51.914;8.420;2023-03-01T01:16:26;7.47;;;4.50;;
15708;SDS011;7954;51.914;8.420;2023-03-01T01:18:55;4.43;;;4.00;;
15708;SDS011;7954;51.914;8.420;2023-03-01T01:21:25;5.17;;;3.97;;
15708;SDS011;7954;51.914;8.420;2023-03-01T01:23:56;5.03;;;4.03;;
15708;SDS011;7954;51.914;8.420;2023-03-01T01:26:25;5.13;;;4.00;;
15708;SDS011;7954;51.914;8.420;2023-03-01T01:28:55;5.30;;;4.40;;
15708;SDS011;7954;51.914;8.420;2023-03-01T01:31:24;4.30;;;3.90;;
15708;SDS011;7954;51.914;8.420;2023-03-01T01:33:54;4.80;;;4.20;;
15708;SDS011;7954;51.914;8.420;2023-03-01T01:36:24;4.40;;;4.00;;
15708;SDS011;7954;51.914;8.420;2023-03-01T01:38:52;4.70;;;4.20;;
15708;SDS011;7954;51.914;8.420;2023-03-01T01:41:22;5.00;;;4.00;;
15708;SDS011;7954;51.914;8.420;2023-03-01T01:46:40;6.33;;;4.10;;
15708;SDS011;7954;51.914;8.420;2023-03-01T01:49:14;6.33;;;4.60;;
15708;SDS011;7954;51.914;8.420;2023-03-01T01:51:49;5.37;;;4.53;;
15708;SDS011;7954;51.914;8.420;2023-03-01T01:54:25;4.47;;;4.03;;
15708;SDS011;7954;51.914;8.420;2023-03-01T01:56:57;5.37;;;4.77;;
15708;SDS011;7954;51.914;8.420;2023-03-01T01:59:27;5.07;;;3.93;;
15708;SDS011;7954;51.914;8.420;2023-03-01T02:01:57;4.77;;;4.23;;
15708;SDS011;7954;51.914;8.420;2023-03-01T02:04:29;5.47;;;4.40;;
15708;SDS011;7954;51.914;8.420;2023-03-01T02:07:01;6.47;;;4.30;;
15708;SDS011;7954;51.914;8.420;2023-03-01T02:09:32;6.70;;;5.00;;
15708;SDS011;7954;51.914;8.420;2023-03-01T02:12:02;5.93;;;4.90;;
15708;SDS011;7954;51.914;8.420;2023-03-01T02:14:34;5.07;;;4.57;;
15708;SDS011;7954;51.914;8.420;2023-03-01T02:17:03;5.50;;;4.33;;
15708;SDS011;7954;51.914;8.420;2023-03-01T02:19:34;6.50;;;4.67;;
15708;SDS011;7954;51.914;8.420;2023-03-01T02:22:16;6.63;;;5.33;;
15708;SDS011;7954;51.914;8.420;2023-03-01T02:24:53;5.63;;;4.60;;
15708;SDS011;7954;51.914;8.420;2023-03-01T02:27:32;5.63;;;4.73;;
15708;SDS011;7954;51.914;8.420;2023-03-01T02:30:08;5.90;;;5.30;;
15708;SDS011;7954;51.914;8.420;2023-03-01T02:32:39;6.83;;;5.03;;
15708;SDS011;7954;51.914;8.420;2023-03-01T02:35:08;5.63;;;5.00;;
15708;SDS011;7954;51.914;8.420;2023-03-01T02:37:38;5.17;;;4.67;;
15708;SDS011;7954;51.914;8.420;2023-03-01T02:40:09;5.57;;;4.60;;
15708;SDS011;7954;51.914;8.420;2023-03-01T02:42:43;6.90;;;4.77;;
15708;SDS011;7954;51.914;8.420;2023-03-01T02:45:17;5.93;;;5.33;;
15708;SDS011;7954;51.914;8.420;2023-03-01T02:47:45;5.23;;;4.57;;
15708;SDS011;7954;51.914;8.420;2023-03-01T02:50:17;6.93;;;5.23;;
15708;SDS011;7954;51.914;8.420;2023-03-01T02:52:53;5.20;;;4.43;;
15708;SDS011;7954;51.914;8.420;2023-03-01T02:55:28;5.80;;;4.50;;
15708;SDS011;7954;51.914;8.420;2023-03-01T02:57:56;5.10;;;4.60;;
15708;SDS011;7954;51.914;8.420;2023-03-01T03:00:26;5.77;;;4.77;;
15708;SDS011;7954;51.914;8.420;2023-03-01T03:02:59;5.83;;;4.63;;
15708;SDS011;7954;51.914;8.420;2023-03-01T03:05:27;6.33;;;4.47;;
15708;SDS011;7954;51.914;8.420;2023-03-01T03:07:57;5.10;;;4.60;;
15708;SDS011;7954;51.914;8.420;2023-03-01T03:10:26;5.87;;;5.13;;
15708;SDS011;7954;51.914;8.420;2023-03-01T03:12:56;5.83;;;4.83;;
15708;SDS011;7954;51.914;8.420;2023-03-01T03:15:27;4.97;;;4.47;;
15708;SDS011;7954;51.914;8.420;2023-03-01T03:17:56;4.87;;;4.37;;
15708;SDS011;7954;51.914;8.420;2023-03-01T03:20:25;5.40;;;4.90;;
15708;SDS011;7954;51.914;8.420;2023-03-01T03:22:55;5.17;;;4.37;;
15708;SDS011;7954;51.914;8.420;2023-03-01T03:25:26;4.93;;;4.43;;
15708;SDS011;7954;51.914;8.420;2023-03-01T03:27:55;4.97;;;4.47;;
15708;SDS011;7954;51.914;8.420;2023-03-01T03:30:25;5.63;;;4.90;;
15708;SDS011;7954;51.914;8.420;2023-03-01T03:32:56;4.77;;;4.30;;
15708;SDS011;7954;51.914;8.420;2023-03-01T03:35:25;7.47;;;5.33;;
15708;SDS011;7954;51.914;8.420;2023-03-01T03:37:57;6.53;;;5.20;;
15708;SDS011;7954;51.914;8.420;2023-03-01T03:40:33;8.83;;;5.50;;
15708;SDS011;7954;51.914;8.420;2023-03-01T03:43:03;7.00;;;5.60;;
15708;SDS011;7954;51.914;8.420;2023-03-01T03:45:35;7.57;;;5.73;;
15708;SDS011;7954;51.914;8.420;2023-03-01T03:48:04;6.47;;;5.00;;
15708;SDS011;7954;51.914;8.420;2023-03-01T03:50:34;7.80;;;5.60;;
15708;SDS011;7954;51.914;8.420;2023-03-01T03:53:02;8.77;;;5.50;;
15708;SDS011;7954;51.914;8.420;2023-03-01T03:55:32;6.47;;;5.53;;
15708;SDS011;7954;51.914;8.420;2023-03-01T03:58:01;7.20;;;5.60;;
15708;SDS011;7954;51.914;8.420;2023-03-01T04:00:35;8.40;;;6.10;;
15708;SDS011;7954;51.914;8.420;2023-03-01T04:03:04;7.57;;;5.87;;
15708;SDS011;7954;51.914;8.420;2023-03-01T04:05:32;7.87;;;5.80;;
15708;SDS011;7954;51.914;8.420;2023-03-01T04:08:00;6.93;;;6.20;;
15708;SDS011;7954;51.914;8.420;2023-03-01T04:10:34;6.13;;;5.53;;
15708;SDS011;7954;51.914;8.420;2023-03-01T04:13:04;6.87;;;5.83;;
15708;SDS011;7954;51.914;8.420;2023-03-01T04:15:34;7.00;;;6.20;;
15708;SDS011;7954;51.914;8.420;2023-03-01T04:18:03;7.70;;;5.90;;
15708;SDS011;7954;51.914;8.420;2023-03-01T04:20:32;8.20;;;5.70;;
15708;SDS011;7954;51.914;8.420;2023-03-01T04:23:02;6.40;;;5.80;;
15708;SDS011;7954;51.914;8.420;2023-03-01T04:25:37;7.00;;;5.70;;
15708;SDS011;7954;51.914;8.420;2023-03-01T04:28:08;6.43;;;5.73;;
15708;SDS011;7954;51.914;8.420;2023-03-01T04:30:38;6.40;;;5.63;;
15708;SDS011;7954;51.914;8.420;2023-03-01T04:33:07;8.57;;;6.00;;
15708;SDS011;7954;51.914;8.420;2023-03-01T04:35:36;8.53;;;6.33;;
15708;SDS011;7954;51.914;8.420;2023-03-01T04:38:04;6.10;;;5.50;;
15708;SDS011;7954;51.914;8.420;2023-03-01T04:40:33;6.90;;;5.73;;
15708;SDS011;7954;51.914;8.420;2023-03-01T04:43:02;7.13;;;6.00;;
15708;SDS011;7954;51.914;8.420;2023-03-01T04:45:31;5.60;;;5.07;;
15708;SDS011;7954;51.914;8.420;2023-03-01T04:48:02;6.40;;;5.70;;
15708;SDS011;7954;51.914;8.420;2023-03-01T04:50:30;6.10;;;5.50;;
15708;SDS011;7954;51.914;8.420;2023-03-01T04:52:59;6.07;;;5.47;;
15708;SDS011;7954;51.914;8.420;2023-03-01T04:55:27;5.93;;;5.30;;
15708;SDS011;7954;51.914;8.420;2023-03-01T04:57:56;6.60;;;6.00;;
15708;SDS011;7954;51.914;8.420;2023-03-01T05:00:24;6.83;;;6.17;;
15708;SDS011;7954;51.914;8.420;2023-03-01T05:02:53;6.20;;;5.60;;
15708;SDS011;7954;51.914;8.420;2023-03-01T05:05:25;6.43;;;5.57;;
15708;SDS011;7954;51.914;8.420;2023-03-01T05:07:54;6.30;;;5.40;;
15708;SDS011;7954;51.914;8.420;2023-03-01T05:10:25;7.00;;;6.17;;
15708;SDS011;7954;51.914;8.420;2023-03-01T05:12:55;7.17;;;6.10;;
15708;SDS011;7954;51.914;8.420;2023-03-01T05:15:24;7.00;;;5.27;;
15708;SDS011;7954;51.914;8.420;2023-03-01T05:17:53;5.50;;;5.00;;
15708;SDS011;7954;51.914;8.420;2023-03-01T05:20:28;7.27;;;5.73;;
15708;SDS011;7954;51.914;8.420;2023-03-01T05:22:59;6.60;;;5.90;;
15708;SDS011;7954;51.914;8.420;2023-03-01T05:25:34;6.63;;;5.70;;
15708;SDS011;7954;51.914;8.420;2023-03-01T05:28:06;6.50;;;5.60;;
15708;SDS011;7954;51.914;8.420;2023-03-01T05:30:37;7.60;;;6.37;;
15708;SDS011;7954;51.914;8.420;2023-03-01T05:33:07;6.33;;;5.63;;
15708;SDS011;7954;51.914;8.420;2023-03-01T05:35:41;6.73;;;5.70;;
15708;SDS011;7954;51.914;8.420;2023-03-01T05:38:09;7.40;;;6.20;;
15708;SDS011;7954;51.914;8.420;2023-03-01T05:40:40;11.33;;;6.40;;
15708;SDS011;7954;51.914;8.420;2023-03-01T05:43:10;9.73;;;6.80;;
15708;SDS011;7954;51.914;8.420;2023-03-01T05:45:38;10.73;;;6.50;;
15708;SDS011;7954;51.914;8.420;2023-03-01T05:48:07;8.57;;;6.70;;
15708;SDS011;7954;51.914;8.420;2023-03-01T05:50:36;6.70;;;5.97;;
15708;SDS011;7954;51.914;8.420;2023-03-01T05:53:09;7.00;;;5.77;;
15708;SDS011;7954;51.914;8.420;2023-03-01T05:55:39;6.83;;;6.13;;
15708;SDS011;7954;51.914;8.420;2023-03-01T05:58:07;8.17;;;6.80;;
15708;SDS011;7954;51.914;8.420;2023-03-01T06:00:37;7.13;;;6.00;;
15708;SDS011;7954;51.914;8.420;2023-03-01T06:03:06;9.57;;;6.83;;
15708;SDS011;7954;51.914;8.420;2023-03-01T06:05:34;8.50;;;7.40;;
15708;SDS011;7954;51.914;8.420;2023-03-01T06:08:02;7.80;;;6.60;;
15708;SDS011;7954;51.914;8.420;2023-03-01T06:10:32;7.50;;;6.33;;
15708;SDS011;7954;51.914;8.420;2023-03-01T06:13:00;8.23;;;6.43;;
15708;SDS011;7954;51.914;8.420;2023-03-01T06:15:28;8.03;;;6.70;;
15708;SDS011;7954;51.914;8.420;2023-03-01T06:17:56;6.23;;;5.40;;
15708;SDS011;7954;51.914;8.420;2023-03-01T06:20:27;8.07;;;6.57;;
15708;SDS011;7954;51.914;8.420;2023-03-01T06:22:56;8.13;;;7.30;;
15708;SDS011;7954;51.914;8.420;2023-03-01T06:25:26;6.93;;;6.23;;
15708;SDS011;7954;51.914;8.420;2023-03-01T06:27:56;6.73;;;6.03;;
15708;SDS011;7954;51.914;8.420;2023-03-01T06:30:25;7.43;;;6.63;;
15708;SDS011;7954;51.914;8.420;2023-03-01T06:32:55;8.27;;;7.03;;
15708;SDS011;7954;51.914;8.420;2023-03-01T06:35:27;7.60;;;6.80;;
15708;SDS011;7954;51.914;8.420;2023-03-01T06:37:57;7.97;;;6.97;;
15708;SDS011;7954;51.914;8.420;2023-03-01T06:40:28;10.40;;;7.17;;
15708;SDS011;7954;51.914;8.420;2023-03-01T06:42:59;8.03;;;6.93;;
15708;SDS011;7954;51.914;8.420;2023-03-01T06:45:27;7.73;;;6.93;;
15708;SDS011;7954;51.914;8.420;2023-03-01T06:48:00;8.23;;;6.97;;
15708;SDS011;7954;51.914;8.420;2023-03-01T06:50:30;9.03;;;7.37;;
15708;SDS011;7954;51.914;8.420;2023-03-01T06:52:58;8.10;;;7.30;;
15708;SDS011;7954;51.914;8.420;2023-03-01T06:55:26;9.10;;;7.17;;
15708;SDS011;7954;51.914;8.420;2023-03-01T06:57:54;10.77;;;7.13;;
15708;SDS011;7954;51.914;8.420;2023-03-01T07:00:26;10.77;;;6.97;;
15708;SDS011;7954;51.914;8.420;2023-03-01T07:02:57;9.35;;;8.32;;
15708;SDS011;7954;51.914;8.420;2023-03-01T07:05:27;8.10;;;6.70;;
15708;SDS011;7954;51.914;8.420;2023-03-01T07:07:57;9.47;;;7.37;;
15708;SDS011;7954;51.914;8.420;2023-03-01T07:10:25;7.37;;;5.97;;
15708;SDS011;7954;51.914;8.420;2023-03-01T07:12:54;7.70;;;6.90;;
15708;SDS011;7954;51.914;8.420;2023-03-01T07:15:26;7.73;;;6.30;;
15708;SDS011;7954;51.914;8.420;2023-03-01T07:17:54;8.33;;;6.00;;
15708;SDS011;7954;51.914;8.420;2023-03-01T07:20:24;7.13;;;6.23;;
15708;SDS011;7954;51.914;8.420;2023-03-01T07:22:52;8.53;;;6.53;;
15708;SDS011;7954;51.914;8.420;2023-03-01T07:25:20;7.63;;;6.73;;
15708;SDS011;7954;51.914;8.420;2023-03-01T07:27:49;7.27;;;6.50;;
15708;SDS011;7954;51.914;8.420;2023-03-01T07:30:18;6.47;;;5.77;;
15708;SDS011;7954;51.914;8.420;2023-03-01T07:32:48;7.77;;;6.00;;
15708;SDS011;7954;51.914;8.420;2023-03-01T07:35:17;7.53;;;6.13;;
15708;SDS011;7954;51.914;8.420;2023-03-01T07:37:46;7.47;;;5.90;;
15708;SDS011;7954;51.914;8.420;2023-03-01T07:40:14;6.50;;;5.63;;
15708;SDS011;7954;51.914;8.420;2023-03-01T07:42:42;7.87;;;7.00;;
15708;SDS011;7954;51.914;8.420;2023-03-01T07:45:10;7.90;;;6.30;;
15708;SDS011;7954;51.914;8.420;2023-03-01T07:47:39;9.30;;;6.50;;
15708;SDS011;7954;51.914;8.420;2023-03-01T07:50:10;7.13;;;6.43;;
15708;SDS011;7954;51.914;8.420;2023-03-01T07:52:39;7.50;;;6.70;;
15708;SDS011;7954;51.914;8.420;2023-03-01T07:55:08;9.50;;;7.57;;
15708;SDS011;7954;51.914;8.420;2023-03-01T07:57:36;12.20;;;9.07;;
15708;SDS011;7954;51.914;8.420;2023-03-01T08:00:04;10.53;;;8.13;;
15708;SDS011;7954;51.914;8.420;2023-03-01T08:02:33;8.10;;;7.30;;
15708;SDS011;7954;51.914;8.420;2023-03-01T08:05:02;9.27;;;7.17;;
15708;SDS011;7954;51.914;8.420;2023-03-01T08:07:32;9.53;;;6.77;;
15708;SDS011;7954;51.914;8.420;2023-03-01T08:10:00;8.87;;;7.10;;
15708;SDS011;7954;51.914;8.420;2023-03-01T08:12:28;7.10;;;6.20;;
15708;SDS011;7954;51.914;8.420;2023-03-01T08:14:57;6.77;;;5.90;;
15708;SDS011;7954;51.914;8.420;2023-03-01T08:17:25;11.33;;;7.87;;
15708;SDS011;7954;51.914;8.420;2023-03-01T08:19:53;10.13;;;7.37;;
15708;SDS011;7954;51.914;8.420;2023-03-01T08:22:22;7.77;;;6.70;;
15708;SDS011;7954;51.914;8.420;2023-03-01T08:24:52;10.00;;;6.93;;
15708;SDS011;7954;51.914;8.420;2023-03-01T08:27:23;9.57;;;7.10;;
15708;SDS011;7954;51.914;8.420;2023-03-01T08:29:51;10.33;;;7.10;;
15708;SDS011;7954;51.914;8.420;2023-03-01T08:32:20;7.93;;;6.43;;
15708;SDS011;7954;51.914;8.420;2023-03-01T08:34:48;8.87;;;6.60;;
15708;SDS011;7954;51.914;8.420;2023-03-01T08:37:16;9.40;;;7.30;;
15708;SDS011;7954;51.914;8.420;2023-03-01T08:39:44;11.03;;;8.13;;
15708;SDS011;7954;51.914;8.420;2023-03-01T08:42:13;13.50;;;9.17;;
15708;SDS011;7954;51.914;8.420;2023-03-01T08:44:41;6.93;;;6.20;;
15708;SDS011;7954;51.914;8.420;2023-03-01T08:47:12;8.63;;;6.03;;
15708;SDS011;7954;51.914;8.420;2023-03-01T08:49:39;8.10;;;5.53;;
15708;SDS011;7954;51.914;8.420;2023-03-01T08:52:07;6.03;;;5.20;;
15708;SDS011;7954;51.914;8.420;2023-03-01T08:54:36;6.27;;;5.37;;
15708;SDS011;7954;51.914;8.420;2023-03-01T08:57:05;7.23;;;5.87;;
15708;SDS011;7954;51.914;8.420;2023-03-01T08:59:35;6.07;;;5.57;;
15708;SDS011;7954;51.914;8.420;2023-03-01T09:02:04;5.67;;;5.13;;
15708;SDS011;7954;51.914;8.420;2023-03-01T09:04:33;6.53;;;5.70;;
15708;SDS011;7954;51.914;8.420;2023-03-01T09:07:00;6.60;;;5.70;;
15708;SDS011;7954;51.914;8.420;2023-03-01T09:09:28;7.03;;;5.20;;
15708;SDS011;7954;51.914;8.420;2023-03-01T09:11:56;6.93;;;5.43;;
15708;SDS011;7954;51.914;8.420;2023-03-01T09:14:25;8.40;;;5.30;;
15708;SDS011;7954;51.914;8.420;2023-03-01T09:16:54;5.37;;;4.87;;
15708;SDS011;7954;51.914;8.420;2023-03-01T09:19:22;5.77;;;5.17;;
15708;SDS011;7954;51.914;8.420;2023-03-01T09:21:52;6.00;;;5.23;;
15708;SDS011;7954;51.914;8.420;2023-03-01T09:24:23;5.40;;;4.90;;
15708;SDS011;7954;51.914;8.420;2023-03-01T09:26:52;7.07;;;5.80;;
15708;SDS011;7954;51.914;8.420;2023-03-01T09:29:20;7.80;;;6.63;;
15708;SDS011;7954;51.914;8.420;2023-03-01T09:31:49;11.50;;;7.60;;
15708;SDS011;7954;51.914;8.420;2023-03-01T09:34:19;7.77;;;5.33;;
15708;SDS011;7954;51.914;8.420;2023-03-01T09:36:49;7.73;;;5.27;;
15708;SDS011;7954;51.914;8.420;2023-03-01T09:39:17;5.80;;;5.20;;
15708;SDS011;7954;51.914;8.420;2023-03-01T09:41:48;6.80;;;5.43;;
15708;SDS011;7954;51.914;8.420;2023-03-01T09:44:27;5.97;;;5.17;;
15708;SDS011;7954;51.914;8.420;2023-03-01T09:47:00;6.57;;;5.43;;
15708;SDS011;7954;51.914;8.420;2023-03-01T09:49:30;5.90;;;5.17;;
15708;SDS011;7954;51.914;8.420;2023-03-01T09:52:03;5.73;;;5.00;;
15708;SDS011;7954;51.914;8.420;2023-03-01T09:54:37;6.10;;;5.17;;
15708;SDS011;7954;51.914;8.420;2023-03-01T09:57:07;6.07;;;5.03;;
15708;SDS011;7954;51.914;8.420;2023-03-01T09:59:53;4.67;;;4.20;;
15708;SDS011;7954;51.914;8.420;2023-03-01T10:02:33;5.33;;;4.37;;
15708;SDS011;7954;51.914;8.420;2023-03-01T10:05:13;5.07;;;4.50;;
15708;SDS011;7954;51.914;8.420;2023-03-01T10:07:52;5.57;;;5.00;;
15708;SDS011;7954;51.914;8.420;2023-03-01T10:10:29;8.20;;;5.53;;
15708;SDS011;7954;51.914;8.420;2023-03-01T10:13:02;5.10;;;4.60;;
15708;SDS011;7954;51.914;8.420;2023-03-01T10:15:39;5.20;;;4.30;;
15708;SDS011;7954;51.914;8.420;2023-03-01T10:18:12;6.23;;;4.70;;
15708;SDS011;7954;51.914;8.420;2023-03-01T10:20:48;5.67;;;4.63;;
15708;SDS011;7954;51.914;8.420;2023-03-01T10:23:21;4.87;;;4.37;;
15708;SDS011;7954;51.914;8.420;2023-03-01T10:25:54;6.27;;;5.20;;
15708;SDS011;7954;51.914;8.420;2023-03-01T10:28:36;5.17;;;4.27;;
15708;SDS011;7954;51.914;8.420;2023-03-01T10:31:15;5.13;;;4.20;;
15708;SDS011;7954;51.914;8.420;2023-03-01T10:33:48;4.77;;;3.90;;
15708;SDS011;7954;51.914;8.420;2023-03-01T10:36:23;5.90;;;4.40;;
15708;SDS011;7954;51.914;8.420;2023-03-01T10:38:52;4.93;;;4.23;;
15708;SDS011;7954;51.914;8.420;2023-03-01T10:41:23;4.87;;;4.37;;
15708;SDS011;7954;51.914;8.420;2023-03-01T10:43:54;5.80;;;4.97;;
15708;SDS011;7954;51.914;8.420;2023-03-01T10:46:24;5.33;;;4.23;;
15708;SDS011;7954;51.914;8.420;2023-03-01T10:49:05;5.00;;;4.47;;
15708;SDS011;7954;51.914;8.420;2023-03-01T10:51:35;5.47;;;4.87;;
15708;SDS011;7954;51.914;8.420;2023-03-01T10:54:06;6.57;;;4.90;;
15708;SDS011;7954;51.914;8.420;2023-03-01T10:56:48;5.37;;;4.83;;
15708;SDS011;7954;51.914;8.420;2023-03-01T10:59:24;8.97;;;4.77;;
15708;SDS011;7954;51.914;8.420;2023-03-01T11:02:02;4.97;;;4.47;;
15708;SDS011;7954;51.914;8.420;2023-03-01T11:04:57;4.40;;;4.00;;
15708;SDS011;7954;51.914;8.420;2023-03-01T11:07:28;5.47;;;4.30;;
15708;SDS011;7954;51.914;8.420;2023-03-01T11:09:56;7.57;;;4.57;;
15708;SDS011;7954;51.914;8.420;2023-03-01T11:12:24;6.77;;;4.33;;
15708;SDS011;7954;51.914;8.420;2023-03-01T11:14:53;5.10;;;4.60;;
15708;SDS011;7954;51.914;8.420;2023-03-01T11:17:23;6.63;;;4.50;;
15708;SDS011;7954;51.914;8.420;2023-03-01T11:20:03;5.90;;;4.43;;
15708;SDS011;7954;51.914;8.420;2023-03-01T11:22:44;6.73;;;4.53;;
15708;SDS011;7954;51.914;8.420;2023-03-01T11:25:14;5.97;;;5.17;;
15708;SDS011;7954;51.914;8.420;2023-03-01T11:27:45;5.60;;;4.70;;
15708;SDS011;7954;51.914;8.420;2023-03-01T11:30:15;5.60;;;4.07;;
15708;SDS011;7954;51.914;8.420;2023-03-01T11:32:49;5.00;;;4.47;;
15708;SDS011;7954;51.914;8.420;2023-03-01T11:35:23;5.23;;;4.17;;
15708;SDS011;7954;51.914;8.420;2023-03-01T11:37:58;5.57;;;3.90;;
15708;SDS011;7954;51.914;8.420;2023-03-01T11:40:32;4.23;;;3.83;;
15708;SDS011;7954;51.914;8.420;2023-03-01T11:43:04;5.00;;;4.20;;
15708;SDS011;7954;51.914;8.420;2023-03-01T11:45:43;5.13;;;4.40;;
15708;SDS011;7954;51.914;8.420;2023-03-01T11:48:27;4.27;;;3.87;;
15708;SDS011;7954;51.914;8.420;2023-03-01T11:51:16;4.23;;;3.47;;
15708;SDS011;7954;51.914;8.420;2023-03-01T11:54:01;3.60;;;3.30;;
15708;SDS011;7954;51.914;8.420;2023-03-01T11:56:34;4.60;;;3.50;;
15708;SDS011;7954;51.914;8.420;2023-03-01T11:59:29;3.90;;;3.50;;
15708;SDS011;7954;51.914;8.420;2023-03-01T12:02:23;4.53;;;3.43;;
15708;SDS011;7954;51.914;8.420;2023-03-01T12:05:16;5.63;;;4.20;;
15708;SDS011;7954;51.914;8.420;2023-03-01T12:07:53;4.47;;;3.63;;
15708;SDS011;7954;51.914;8.420;2023-03-01T12:10:31;4.87;;;3.53;;
15708;SDS011;7954;51.914;8.420;2023-03-01T12:13:19;4.80;;;3.20;;
15708;SDS011;7954;51.914;8.420;2023-03-01T12:16:06;7.63;;;3.37;;
15708;SDS011;7954;51.914;8.420;2023-03-01T12:22:04;3.30;;;3.00;;
15708;SDS011;7954;51.914;8.420;2023-03-01T12:24:54;4.33;;;3.47;;
15708;SDS011;7954;51.914;8.420;2023-03-01T12:31:03;4.23;;;3.40;;
15708;SDS011;7954;51.914;8.420;2023-03-01T12:33:42;4.87;;;3.50;;
15708;SDS011;7954;51.914;8.420;2023-03-01T12:36:28;3.93;;;3.53;;
15708;SDS011;7954;51.914;8.420;2023-03-01T12:39:08;3.67;;;3.27;;
15708;SDS011;7954;51.914;8.420;2023-03-01T12:41:51;4.43;;;3.60;;
15708;SDS011;7954;51.914;8.420;2023-03-01T12:44:33;3.80;;;3.20;;
15708;SDS011;7954;51.914;8.420;2023-03-01T12:47:17;4.03;;;3.47;;
15708;SDS011;7954;51.914;8.420;2023-03-01T12:49:55;4.30;;;3.57;;
15708;SDS011;7954;51.914;8.420;2023-03-01T12:52:28;4.20;;;3.53;;
15708;SDS011;7954;51.914;8.420;2023-03-01T12:55:00;4.20;;;3.33;;
15708;SDS011;7954;51.914;8.420;2023-03-01T12:57:34;4.30;;;3.23;;
15708;SDS011;7954;51.914;8.420;2023-03-01T13:00:15;4.83;;;3.50;;
15708;SDS011;7954;51.914;8.420;2023-03-01T13:02:56;4.17;;;3.40;;
15708;SDS011;7954;51.914;8.420;2023-03-01T13:05:31;3.53;;;3.23;;
15708;SDS011;7954;51.914;8.420;2023-03-01T13:08:11;4.17;;;3.77;;
15708;SDS011;7954;51.914;8.420;2023-03-01T13:10:49;3.37;;;3.07;;
15708;SDS011;7954;51.914;8.420;2023-03-01T13:13:20;5.63;;;3.53;;
15708;SDS011;7954;51.914;8.420;2023-03-01T13:15:52;4.70;;;3.30;;
15708;SDS011;7954;51.914;8.420;2023-03-01T13:18:27;3.80;;;3.50;;
15708;SDS011;7954;51.914;8.420;2023-03-01T13:20:57;3.50;;;3.20;;
15708;SDS011;7954;51.914;8.420;2023-03-01T13:23:28;4.37;;;3.10;;
15708;SDS011;7954;51.914;8.420;2023-03-01T13:26:00;3.73;;;3.33;;
15708;SDS011;7954;51.914;8.420;2023-03-01T13:28:37;4.00;;;3.60;;
15708;SDS011;7954;51.914;8.420;2023-03-01T13:31:11;3.83;;;2.90;;
15708;SDS011;7954;51.914;8.420;2023-03-01T13:34:42;3.40;;;3.10;;
15708;SDS011;7954;51.914;8.420;2023-03-01T13:37:18;3.60;;;3.30;;
15708;SDS011;7954;51.914;8.420;2023-03-01T13:39:58;3.67;;;3.37;;
15708;SDS011;7954;51.914;8.420;2023-03-01T13:42:35;2.93;;;2.63;;
15708;SDS011;7954;51.914;8.420;2023-03-01T13:45:14;3.30;;;3.00;;
15708;SDS011;7954;51.914;8.420;2023-03-01T13:47:47;3.57;;;3.10;;
15708;SDS011;7954;51.914;8.420;2023-03-01T13:50:20;2.70;;;2.50;;
15708;SDS011;7954;51.914;8.420;2023-03-01T13:52:52;3.40;;;3.10;;
15708;SDS011;7954;51.914;8.420;2023-03-01T13:55:24;3.73;;;3.07;;
15708;SDS011;7954;51.914;8.420;2023-03-01T13:57:56;3.30;;;3.00;;
15708;SDS011;7954;51.914;8.420;2023-03-01T14:00:33;3.37;;;3.07;;
15708;SDS011;7954;51.914;8.420;2023-03-01T14:03:13;3.67;;;3.37;;
15708;SDS011;7954;51.914;8.420;2023-03-01T14:05:43;4.10;;;3.70;;
15708;SDS011;7954;51.914;8.420;2023-03-01T14:08:39;3.83;;;3.47;;
15708;SDS011;7954;51.914;8.420;2023-03-01T14:11:21;4.10;;;3.00;;
15708;SDS011;7954;51.914;8.420;2023-03-01T14:14:09;3.17;;;2.87;;
15708;SDS011;7954;51.914;8.420;2023-03-01T14:16:46;4.10;;;3.27;;
15708;SDS011;7954;51.914;8.420;2023-03-01T14:19:23;2.93;;;2.63;;
15708;SDS011;7954;51.914;8.420;2023-03-01T14:22:02;6.53;;;2.90;;
15708;SDS011;7954;51.914;8.420;2023-03-01T14:24:38;3.30;;;2.97;;
15708;SDS011;7954;51.914;8.420;2023-03-01T14:27:11;3.00;;;2.80;;
15708;SDS011;7954;51.914;8.420;2023-03-01T14:29:41;3.25;;;2.95;;
15708;SDS011;7954;51.914;8.420;2023-03-01T14:32:10;3.30;;;3.00;;
15708;SDS011;7954;51.914;8.420;2023-03-01T14:34:44;3.15;;;2.95;;
15708;SDS011;7954;51.914;8.420;2023-03-01T14:37:18;3.58;;;3.17;;
15708;SDS011;7954;51.914;8.420;2023-03-01T14:39:49;3.50;;;3.13;;
15708;SDS011;7954;51.914;8.420;2023-03-01T14:42:18;3.72;;;3.03;;
15708;SDS011;7954;51.914;8.420;2023-03-01T14:44:48;3.10;;;2.88;;
15708;SDS011;7954;51.914;8.420;2023-03-01T14:47:24;3.95;;;3.08;;
15708;SDS011;7954;51.914;8.420;2023-03-01T14:49:57;3.63;;;3.33;;
15708;SDS011;7954;51.914;8.420;2023-03-01T14:52:31;3.05;;;2.78;;
15708;SDS011;7954;51.914;8.420;2023-03-01T14:55:04;3.38;;;2.88;;
15708;SDS011;7954;51.914;8.420;2023-03-01T14:57:35;3.33;;;2.53;;
15708;SDS011;7954;51.914;8.420;2023-03-01T15:00:03;3.90;;;2.70;;
15708;SDS011;7954;51.914;8.420;2023-03-01T15:02:34;2.88;;;2.45;;
15708;SDS011;7954;51.914;8.420;2023-03-01T15:05:05;4.80;;;3.45;;
15708;SDS011;7954;51.914;8.420;2023-03-01T15:07:36;3.70;;;2.85;;
15708;SDS011;7954;51.914;8.420;2023-03-01T15:10:11;2.85;;;2.63;;
15708;SDS011;7954;51.914;8.420;2023-03-01T15:12:44;3.40;;;2.90;;
15708;SDS011;7954;51.914;8.420;2023-03-01T15:15:23;3.10;;;2.80;;
15708;SDS011;7954;51.914;8.420;2023-03-01T15:18:00;3.13;;;2.83;;
15708;SDS011;7954;51.914;8.420;2023-03-01T15:20:31;3.08;;;2.88;;
15708;SDS011;7954;51.914;8.420;2023-03-01T15:23:02;3.08;;;2.88;;
15708;SDS011;7954;51.914;8.420;2023-03-01T15:25:31;3.30;;;3.00;;
15708;SDS011;7954;51.914;8.420;2023-03-01T15:28:01;3.03;;;2.80;;
15708;SDS011;7954;51.914;8.420;2023-03-01T15:30:30;3.20;;;2.90;;
15708;SDS011;7954;51.914;8.420;2023-03-01T15:33:17;2.80;;;2.60;;
15708;SDS011;7954;51.914;8.420;2023-03-01T15:35:58;3.17;;;2.88;;
15708;SDS011;7954;51.914;8.420;2023-03-01T15:38:32;2.97;;;2.72;;
15708;SDS011;7954;51.914;8.420;2023-03-01T15:41:05;3.42;;;2.97;;